createdAt,value
2017-08-08T00:01:07.243Z,13.8
2017-08-08T00:02:14.718Z,13.7
2017-08-08T00:03:22.195Z,13.7
2017-08-08T00:04:29.675Z,13.7
2017-08-08T00:05:36.822Z,13.7
2017-08-08T00:06:44.602Z,13.7
2017-08-08T00:07:52.080Z,13.7
2017-08-08T00:08:59.574Z,13.7
2017-08-08T00:10:07.052Z,13.7
2017-08-08T00:11:14.555Z,13.7
2017-08-08T00:12:22.333Z,13.6
2017-08-08T00:13:29.813Z,13.7
2017-08-08T00:14:37.294Z,13.6
2017-08-08T00:15:44.434Z,13.6
2017-08-08T00:16:51.582Z,13.6
2017-08-08T00:17:59.367Z,13.6
2017-08-08T00:19:06.517Z,13.6
2017-08-08T00:20:14.006Z,13.5
2017-08-08T00:21:21.159Z,13.6
2017-08-08T00:22:28.647Z,13.6
2017-08-08T00:23:36.426Z,13.5
2017-08-08T00:24:43.903Z,13.5
2017-08-08T00:25:51.384Z,13.5
2017-08-08T00:26:58.861Z,13.5
2017-08-08T00:28:06.021Z,13.5
2017-08-08T00:29:13.794Z,13.5
2017-08-08T00:30:21.276Z,13.5
2017-08-08T00:31:28.758Z,13.5
2017-08-08T00:32:36.238Z,13.4
2017-08-08T00:33:43.734Z,13.4
2017-08-08T00:34:51.514Z,13.4
2017-08-08T00:35:58.667Z,13.4
2017-08-08T00:37:06.153Z,13.4
2017-08-08T00:38:13.634Z,13.3
2017-08-08T00:39:21.110Z,13.3
2017-08-08T00:40:43.470Z,13.2
2017-08-08T00:41:50.948Z,13.2
2017-08-08T00:42:58.448Z,13.2
2017-08-08T00:44:05.594Z,13.2
2017-08-08T00:45:13.090Z,13.2
2017-08-08T00:46:20.870Z,13.1
2017-08-08T00:47:42.936Z,13.1
2017-08-08T00:48:50.413Z,13.1
2017-08-08T00:49:57.895Z,13
2017-08-08T00:51:05.387Z,13
2017-08-08T00:52:13.172Z,13
2017-08-08T00:53:20.658Z,13
2017-08-08T00:54:28.136Z,13
2017-08-08T00:55:35.617Z,13
2017-08-08T00:56:43.101Z,13
2017-08-08T00:57:50.885Z,12.9
2017-08-08T00:58:58.057Z,12.9
2017-08-08T01:00:05.556Z,12.9
2017-08-08T01:01:12.717Z,12.9
2017-08-08T01:02:20.215Z,12.9
2017-08-08T01:03:27.989Z,12.9
2017-08-08T01:04:34.809Z,12.9
2017-08-08T01:05:42.293Z,12.9
2017-08-08T01:06:49.777Z,12.9
2017-08-08T01:07:57.267Z,12.9
2017-08-08T01:09:05.042Z,13
2017-08-08T01:10:12.193Z,12.9
2017-08-08T01:11:19.676Z,12.9
2017-08-08T01:12:27.161Z,12.9
2017-08-08T01:13:34.650Z,12.9
2017-08-08T01:14:42.422Z,12.9
2017-08-08T01:15:49.572Z,12.9
2017-08-08T01:16:57.067Z,12.8
2017-08-08T01:18:04.547Z,12.9
2017-08-08T01:19:12.053Z,12.8
2017-08-08T01:20:19.834Z,12.8
2017-08-08T01:21:27.313Z,12.8
2017-08-08T01:22:34.791Z,12.8
2017-08-08T01:23:42.273Z,12.8
2017-08-08T01:25:04.333Z,12.8
2017-08-08T01:26:12.111Z,12.8
2017-08-08T01:27:19.586Z,12.7
2017-08-08T01:28:27.067Z,12.7
2017-08-08T01:29:34.551Z,12.7
2017-08-08T01:30:42.031Z,12.7
2017-08-08T01:31:49.814Z,12.7
2017-08-08T01:32:57.294Z,12.7
2017-08-08T01:34:04.771Z,12.7
2017-08-08T01:35:12.258Z,12.7
2017-08-08T01:36:19.730Z,12.7
2017-08-08T01:37:27.506Z,12.6
2017-08-08T01:38:34.988Z,12.6
2017-08-08T01:39:42.478Z,12.6
2017-08-08T01:40:49.951Z,12.6
2017-08-08T01:41:57.428Z,12.6
2017-08-08T01:43:05.210Z,12.6
2017-08-08T01:44:12.685Z,12.6
2017-08-08T01:45:20.160Z,12.6
2017-08-08T01:46:27.651Z,12.5
2017-08-08T01:47:35.125Z,12.5
2017-08-08T01:48:42.910Z,12.5
2017-08-08T01:49:51.514Z,12.5
2017-08-08T01:50:59.005Z,12.4
2017-08-08T01:52:06.491Z,12.4
2017-08-08T01:53:13.966Z,12.4
2017-08-08T01:54:21.747Z,12.3
2017-08-08T01:55:29.217Z,12.3
2017-08-08T01:56:36.381Z,12.3
2017-08-08T01:57:43.852Z,12.3
2017-08-08T01:58:51.336Z,12.3
2017-08-08T01:59:59.111Z,12.2
2017-08-08T02:01:06.598Z,12.2
2017-08-08T02:02:13.762Z,12.3
2017-08-08T02:03:21.243Z,12.3
2017-08-08T02:04:28.720Z,12.3
2017-08-08T02:05:36.503Z,12.3
2017-08-08T02:06:43.991Z,12.3
2017-08-08T02:07:51.473Z,12.2
2017-08-08T02:08:58.956Z,12.2
2017-08-08T02:10:06.437Z,12.2
2017-08-08T02:11:14.216Z,12.2
2017-08-08T02:12:21.713Z,12.2
2017-08-08T02:13:29.193Z,12.2
2017-08-08T02:14:36.339Z,12.2
2017-08-08T02:15:43.822Z,12.2
2017-08-08T02:16:51.600Z,12.2
2017-08-08T02:17:59.071Z,12.2
2017-08-08T02:19:06.219Z,12.2
2017-08-08T02:20:13.697Z,12.2
2017-08-08T02:21:21.181Z,12.2
2017-08-08T02:22:28.944Z,12.2
2017-08-08T02:23:36.096Z,12.2
2017-08-08T02:24:43.574Z,12.3
2017-08-08T02:25:51.053Z,12.3
2017-08-08T02:26:58.541Z,12.3
2017-08-08T02:28:06.318Z,12.3
2017-08-08T02:29:13.811Z,12.3
2017-08-08T02:30:21.292Z,12.3
2017-08-08T02:31:28.768Z,12.3
2017-08-08T02:32:35.915Z,12.3
2017-08-08T02:33:43.369Z,12.2
2017-08-08T02:34:50.857Z,12.2
2017-08-08T02:35:58.340Z,12.2
2017-08-08T02:37:05.820Z,12.2
2017-08-08T02:38:12.991Z,12.2
2017-08-08T02:39:20.775Z,12.1
2017-08-08T02:40:28.248Z,12.2
2017-08-08T02:41:35.729Z,12.1
2017-08-08T02:42:43.210Z,12.1
2017-08-08T02:43:50.683Z,12.1
2017-08-08T02:44:58.468Z,12.1
2017-08-08T02:46:05.962Z,12.1
2017-08-08T02:47:13.460Z,12.1
2017-08-08T02:48:20.952Z,12.1
2017-08-08T02:49:28.426Z,12.1
2017-08-08T02:50:36.194Z,12.1
2017-08-08T02:51:43.685Z,12.1
2017-08-08T02:52:51.163Z,12
2017-08-08T02:53:58.643Z,12
2017-08-08T02:55:06.112Z,12
2017-08-08T02:56:13.913Z,11.9
2017-08-08T02:57:21.067Z,11.9
2017-08-08T02:58:28.559Z,11.9
2017-08-08T02:59:36.041Z,11.8
2017-08-08T03:00:43.519Z,11.8
2017-08-08T03:01:50.972Z,11.8
2017-08-08T03:02:58.453Z,11.8
2017-08-08T03:04:05.934Z,11.8
2017-08-08T03:05:13.076Z,11.8
2017-08-08T03:06:20.232Z,11.8
2017-08-08T03:07:28.008Z,11.8
2017-08-08T03:08:35.487Z,11.8
2017-08-08T03:09:42.633Z,11.8
2017-08-08T03:10:50.115Z,11.8
2017-08-08T03:11:57.258Z,11.8
2017-08-08T03:13:05.041Z,11.8
2017-08-08T03:14:12.514Z,11.8
2017-08-08T03:15:19.994Z,11.8
2017-08-08T03:16:27.476Z,11.8
2017-08-08T03:17:34.958Z,11.8
2017-08-08T03:18:42.742Z,11.8
2017-08-08T03:19:50.220Z,11.9
2017-08-08T03:20:57.702Z,11.9
2017-08-08T03:22:05.188Z,11.9
2017-08-08T03:23:12.659Z,11.9
2017-08-08T03:24:20.451Z,12
2017-08-08T03:25:27.932Z,12
2017-08-08T03:26:35.404Z,11.9
2017-08-08T03:27:42.885Z,12
2017-08-08T03:28:50.365Z,12
2017-08-08T03:29:58.145Z,12
2017-08-08T03:31:05.630Z,12
2017-08-08T03:32:12.777Z,12
2017-08-08T03:33:20.255Z,12.1
2017-08-08T03:34:27.739Z,12
2017-08-08T03:35:35.528Z,12
2017-08-08T03:36:43.008Z,12
2017-08-08T03:37:50.483Z,12.1
2017-08-08T03:38:57.966Z,12.1
2017-08-08T03:40:05.443Z,12.1
2017-08-08T03:41:13.229Z,12.1
2017-08-08T03:42:20.706Z,12.1
2017-08-08T03:43:27.541Z,12.1
2017-08-08T03:44:35.020Z,12.1
2017-08-08T03:45:42.514Z,12.1
2017-08-08T03:46:49.994Z,12.2
2017-08-08T03:47:57.469Z,12.2
2017-08-08T03:49:04.943Z,12.2
2017-08-08T03:50:12.412Z,12.1
2017-08-08T03:51:19.889Z,12.1
2017-08-08T03:52:27.338Z,12.1
2017-08-08T03:53:34.810Z,12.1
2017-08-08T03:54:42.292Z,12.1
2017-08-08T03:55:49.771Z,12
2017-08-08T03:56:57.251Z,12
2017-08-08T03:58:05.031Z,12.1
2017-08-08T03:59:12.507Z,12
2017-08-08T04:00:19.989Z,12
2017-08-08T04:01:27.473Z,12
2017-08-08T04:02:34.620Z,12
2017-08-08T04:03:42.631Z,12
2017-08-08T04:04:50.113Z,12
2017-08-08T04:05:57.264Z,12
2017-08-08T04:07:04.744Z,12
2017-08-08T04:08:12.227Z,12
2017-08-08T04:09:19.703Z,12
2017-08-08T04:10:26.853Z,12
2017-08-08T04:11:34.534Z,12
2017-08-08T04:12:42.016Z,12
2017-08-08T04:13:49.803Z,12
2017-08-08T04:14:56.943Z,12
2017-08-08T04:16:04.423Z,12
2017-08-08T04:17:11.938Z,12
2017-08-08T04:18:19.426Z,12
2017-08-08T04:19:27.211Z,12
2017-08-08T04:20:34.698Z,12.1
2017-08-08T04:21:42.178Z,12.1
2017-08-08T04:22:49.660Z,12.1
2017-08-08T04:23:57.130Z,12.1
2017-08-08T04:25:04.908Z,12.1
2017-08-08T04:26:12.387Z,12.1
2017-08-08T04:27:19.858Z,12.2
2017-08-08T04:28:26.683Z,12.2
2017-08-08T04:29:34.157Z,12.2
2017-08-08T04:30:41.934Z,12.3
2017-08-08T04:31:49.412Z,12.3
2017-08-08T04:32:56.254Z,12.3
2017-08-08T04:34:03.728Z,12.3
2017-08-08T04:35:11.205Z,12.3
2017-08-08T04:36:18.699Z,12.3
2017-08-08T04:37:26.178Z,12.3
2017-08-08T04:38:33.335Z,12.4
2017-08-08T04:39:40.820Z,12.4
2017-08-08T04:40:48.309Z,12.4
2017-08-08T04:41:55.748Z,12.4
2017-08-08T04:43:03.244Z,12.4
2017-08-08T04:44:10.715Z,12.4
2017-08-08T04:45:18.194Z,12.5
2017-08-08T04:46:25.672Z,12.5
2017-08-08T04:47:33.445Z,12.5
2017-08-08T04:48:40.928Z,12.5
2017-08-08T04:49:48.405Z,12.6
2017-08-08T04:50:55.877Z,12.6
2017-08-08T04:52:03.356Z,12.7
2017-08-08T04:53:10.801Z,12.7
2017-08-08T04:54:18.289Z,12.7
2017-08-08T04:55:25.793Z,12.8
2017-08-08T04:56:33.274Z,12.8
2017-08-08T04:57:40.753Z,12.8
2017-08-08T04:58:48.535Z,12.8
2017-08-08T04:59:56.185Z,12.8
2017-08-08T05:01:04.624Z,12.9
2017-08-08T05:02:11.786Z,12.9
2017-08-08T05:03:19.263Z,12.9
2017-08-08T05:04:27.042Z,12.9
2017-08-08T05:05:34.529Z,13
2017-08-08T05:06:42.008Z,13
2017-08-08T05:07:49.485Z,13
2017-08-08T05:08:56.956Z,13
2017-08-08T05:10:04.744Z,13.1
2017-08-08T05:11:12.225Z,13.1
2017-08-08T05:12:19.696Z,13.2
2017-08-08T05:13:27.170Z,13.2
2017-08-08T05:14:34.647Z,13.3
2017-08-08T05:15:42.120Z,13.3
2017-08-08T05:16:49.638Z,13.4
2017-08-08T05:17:57.117Z,13.5
2017-08-08T05:19:04.608Z,13.6
2017-08-08T05:20:12.082Z,13.7
2017-08-08T05:21:19.864Z,13.8
2017-08-08T05:22:27.014Z,13.9
2017-08-08T05:23:33.833Z,13.9
2017-08-08T05:24:41.308Z,13.9
2017-08-08T05:25:48.454Z,14
2017-08-08T05:26:56.240Z,14.1
2017-08-08T05:28:03.400Z,14.1
2017-08-08T05:29:10.875Z,14.2
2017-08-08T05:30:18.361Z,14.3
2017-08-08T05:31:25.836Z,14.4
2017-08-08T05:32:33.279Z,14.6
2017-08-08T05:33:40.426Z,14.8
2017-08-08T05:34:47.255Z,14.9
2017-08-08T05:35:54.743Z,15.1
2017-08-08T05:37:02.216Z,15.2
2017-08-08T05:38:10.081Z,15.3
2017-08-08T05:39:17.564Z,15.4
2017-08-08T05:40:25.067Z,15.6
2017-08-08T05:41:32.545Z,15.7
2017-08-08T05:42:40.264Z,15.8
2017-08-08T05:43:48.031Z,15.9
2017-08-08T05:44:55.508Z,16
2017-08-08T05:46:02.658Z,16.1
2017-08-08T05:47:09.804Z,16.2
2017-08-08T05:48:17.286Z,16.3
2017-08-08T05:49:25.063Z,16.4
2017-08-08T05:50:31.880Z,16.5
2017-08-08T05:51:39.365Z,16.5
2017-08-08T05:52:46.842Z,16.6
2017-08-08T05:53:54.326Z,16.6
2017-08-08T05:55:01.807Z,16.7
2017-08-08T05:56:09.284Z,16.7
2017-08-08T05:57:16.407Z,16.8
2017-08-08T05:58:24.853Z,16.9
2017-08-08T05:59:32.353Z,16.9
2017-08-08T06:00:40.140Z,16.9
2017-08-08T06:01:47.617Z,17
2017-08-08T06:02:55.096Z,17.1
2017-08-08T06:04:02.582Z,17.1
2017-08-08T06:05:10.065Z,17.3
2017-08-08T06:06:17.850Z,17.3
2017-08-08T06:07:25.332Z,17.4
2017-08-08T06:08:32.807Z,17.5
2017-08-08T06:09:40.290Z,17.6
2017-08-08T06:10:47.775Z,17.6
2017-08-08T06:11:55.555Z,17.6
2017-08-08T06:13:02.721Z,17.6
2017-08-08T06:14:10.202Z,17.7
2017-08-08T06:15:17.683Z,17.7
2017-08-08T06:16:24.834Z,17.8
2017-08-08T06:17:32.311Z,17.8
2017-08-08T06:18:39.468Z,17.9
2017-08-08T06:19:46.616Z,18.1
2017-08-08T06:20:54.095Z,18.2
2017-08-08T06:22:01.878Z,18.3
2017-08-08T06:23:09.358Z,18.3
2017-08-08T06:24:16.843Z,18.3
2017-08-08T06:25:23.995Z,18.3
2017-08-08T06:26:31.471Z,18.3
2017-08-08T06:27:39.248Z,18.3
2017-08-08T06:28:46.732Z,18.3
2017-08-08T06:29:54.202Z,18.4
2017-08-08T06:31:01.680Z,18.4
2017-08-08T06:32:08.843Z,18.3
2017-08-08T06:33:16.283Z,18.3
2017-08-08T06:34:23.765Z,18.3
2017-08-08T06:35:31.262Z,18.3
2017-08-08T06:36:38.743Z,18.3
2017-08-08T06:37:45.908Z,18.4
2017-08-08T06:38:53.692Z,18.5
2017-08-08T06:40:01.175Z,18.5
2017-08-08T06:41:08.657Z,18.5
2017-08-08T06:42:16.136Z,18.6
2017-08-08T06:43:23.617Z,18.8
2017-08-08T06:44:31.098Z,18.9
2017-08-08T06:45:38.581Z,18.9
2017-08-08T06:46:46.073Z,18.8
2017-08-08T06:47:53.221Z,18.9
2017-08-08T06:49:00.707Z,18.9
2017-08-08T06:50:08.495Z,19
2017-08-08T06:51:15.978Z,19.1
2017-08-08T06:52:23.459Z,19.1
2017-08-08T06:53:30.941Z,19.1
2017-08-08T06:54:38.108Z,19.1
2017-08-08T06:55:45.892Z,19
2017-08-08T06:56:53.386Z,18.9
2017-08-08T06:58:00.889Z,18.9
2017-08-08T06:59:08.373Z,18.9
2017-08-08T07:00:15.853Z,18.8
2017-08-08T07:01:23.003Z,18.8
2017-08-08T07:02:30.490Z,18.8
2017-08-08T07:03:37.648Z,18.8
2017-08-08T07:04:44.799Z,18.8
2017-08-08T07:05:51.948Z,18.9
2017-08-08T07:06:59.724Z,18.9
2017-08-08T07:08:07.214Z,18.9
2017-08-08T07:09:14.705Z,18.9
2017-08-08T07:10:22.177Z,19
2017-08-08T07:11:29.663Z,19.1
2017-08-08T07:12:37.441Z,19.2
2017-08-08T07:13:44.591Z,19.3
2017-08-08T07:14:52.089Z,19.3
2017-08-08T07:15:59.569Z,19.4
2017-08-08T07:17:07.051Z,19.5
2017-08-08T07:18:14.837Z,19.6
2017-08-08T07:19:22.338Z,19.7
2017-08-08T07:20:29.813Z,19.5
2017-08-08T07:21:37.294Z,19.5
2017-08-08T07:22:44.454Z,19.5
2017-08-08T07:23:51.933Z,19.5
2017-08-08T07:24:59.416Z,19.6
2017-08-08T07:26:06.905Z,19.6
2017-08-08T07:27:14.381Z,19.7
2017-08-08T07:28:21.872Z,19.8
2017-08-08T07:29:29.658Z,19.9
2017-08-08T07:30:37.151Z,19.9
2017-08-08T07:31:44.631Z,20
2017-08-08T07:32:52.131Z,20
2017-08-08T07:33:59.645Z,20.2
2017-08-08T07:35:07.112Z,20.2
2017-08-08T07:36:14.590Z,20.1
2017-08-08T07:37:22.069Z,20.2
2017-08-08T07:38:29.556Z,20.3
2017-08-08T07:39:37.052Z,20.4
2017-08-08T07:40:44.973Z,20.4
2017-08-08T07:41:52.443Z,20.5
2017-08-08T07:42:59.933Z,20.6
2017-08-08T07:44:07.416Z,20.8
2017-08-08T07:45:14.900Z,21.1
2017-08-08T07:46:22.683Z,21.3
2017-08-08T07:47:30.171Z,21.3
2017-08-08T07:48:37.654Z,21.1
2017-08-08T07:49:44.824Z,21
2017-08-08T07:50:52.318Z,21.1
2017-08-08T07:52:00.106Z,21
2017-08-08T07:53:07.586Z,21.2
2017-08-08T07:54:15.074Z,21.5
2017-08-08T07:55:22.222Z,21.5
2017-08-08T07:56:29.374Z,21.5
2017-08-08T07:57:37.192Z,21.5
2017-08-08T07:58:44.683Z,21.5
2017-08-08T07:59:52.169Z,21.4
2017-08-08T08:00:59.648Z,21.4
2017-08-08T08:02:06.152Z,21.4
2017-08-08T08:03:13.635Z,21.4
2017-08-08T08:04:21.113Z,21.4
2017-08-08T08:05:28.593Z,21.4
2017-08-08T08:06:35.739Z,21.4
2017-08-08T08:07:42.904Z,21.2
2017-08-08T08:08:50.364Z,21.2
2017-08-08T08:09:57.540Z,21.4
2017-08-08T08:11:05.020Z,21.5
2017-08-08T08:12:12.516Z,21.6
2017-08-08T08:13:20.017Z,21.6
2017-08-08T08:14:27.815Z,21.6
2017-08-08T08:15:34.962Z,21.8
2017-08-08T08:16:41.783Z,22
2017-08-08T08:17:48.945Z,21.9
2017-08-08T08:18:56.421Z,21.9
2017-08-08T08:20:03.909Z,21.8
2017-08-08T08:21:11.390Z,21.8
2017-08-08T08:22:18.547Z,22
2017-08-08T08:23:26.028Z,22.2
2017-08-08T08:24:33.515Z,22.5
2017-08-08T08:25:41.323Z,22.8
2017-08-08T08:26:48.806Z,23
2017-08-08T08:27:55.957Z,23.1
2017-08-08T08:29:03.108Z,23
2017-08-08T08:30:10.264Z,22.9
2017-08-08T08:31:18.056Z,22.8
2017-08-08T08:32:25.542Z,22.7
2017-08-08T08:33:33.830Z,22.8
2017-08-08T08:34:41.311Z,23.1
2017-08-08T08:35:48.472Z,23.5
2017-08-08T08:36:56.256Z,23.7
2017-08-08T08:38:03.742Z,23.9
2017-08-08T08:39:10.906Z,23.9
2017-08-08T08:40:18.402Z,24
2017-08-08T08:41:25.565Z,23.9
2017-08-08T08:42:32.385Z,23.9
2017-08-08T08:43:39.876Z,24.2
2017-08-08T08:44:47.369Z,24.5
2017-08-08T08:45:54.852Z,24.5
2017-08-08T08:47:02.334Z,24.1
2017-08-08T08:48:10.119Z,24
2017-08-08T08:49:17.606Z,24.1
2017-08-08T08:50:25.090Z,23.9
2017-08-08T08:51:32.578Z,23.9
2017-08-08T08:52:40.066Z,23.8
2017-08-08T08:53:47.847Z,23.6
2017-08-08T08:54:55.331Z,23.6
2017-08-08T08:56:02.816Z,23.8
2017-08-08T08:57:10.338Z,23.8
2017-08-08T08:58:17.824Z,24.1
2017-08-08T08:59:25.607Z,24.2
2017-08-08T09:00:33.101Z,24.3
2017-08-08T09:01:40.586Z,24.3
2017-08-08T09:02:48.087Z,24.5
2017-08-08T09:03:55.572Z,24.5
2017-08-08T09:05:03.381Z,24.5
2017-08-08T09:06:10.857Z,24.5
2017-08-08T09:07:18.347Z,24.4
2017-08-08T09:08:25.502Z,24.5
2017-08-08T09:09:32.987Z,24.6
2017-08-08T09:10:40.767Z,24.8
2017-08-08T09:11:48.258Z,24.8
2017-08-08T09:12:55.740Z,24.5
2017-08-08T09:14:02.891Z,24.4
2017-08-08T09:15:10.051Z,24.4
2017-08-08T09:16:17.833Z,24.2
2017-08-08T09:17:25.321Z,24.5
2017-08-08T09:18:32.834Z,24.6
2017-08-08T09:19:40.353Z,24.9
2017-08-08T09:20:47.516Z,25.2
2017-08-08T09:21:55.004Z,25.5
2017-08-08T09:23:02.491Z,25.7
2017-08-08T09:24:09.986Z,25.4
2017-08-08T09:25:17.469Z,25
2017-08-08T09:26:24.958Z,24.8
2017-08-08T09:27:32.800Z,25.1
2017-08-08T09:28:40.284Z,25.4
2017-08-08T09:29:47.776Z,25.6
2017-08-08T09:30:55.265Z,25.5
2017-08-08T09:32:02.747Z,25.7
2017-08-08T09:33:10.211Z,26.2
2017-08-08T09:34:17.702Z,26.4
2017-08-08T09:35:25.187Z,26.3
2017-08-08T09:36:32.685Z,26.3
2017-08-08T09:37:39.844Z,26.5
2017-08-08T09:38:47.645Z,26.4
2017-08-08T09:39:54.795Z,26.2
2017-08-08T09:41:02.284Z,25.9
2017-08-08T09:42:09.767Z,26
2017-08-08T09:43:17.261Z,26
2017-08-08T09:44:24.728Z,26.2
2017-08-08T09:45:32.211Z,26.1
2017-08-08T09:46:39.366Z,26.3
2017-08-08T09:47:46.855Z,26.5
2017-08-08T09:48:54.023Z,26.6
2017-08-08T09:50:01.897Z,26.7
2017-08-08T09:51:09.407Z,26.9
2017-08-08T09:52:16.895Z,27
2017-08-08T09:53:24.384Z,27
2017-08-08T09:54:31.541Z,27.1
2017-08-08T09:55:39.326Z,27
2017-08-08T09:56:46.815Z,27.4
2017-08-08T09:57:54.308Z,27.6
2017-08-08T09:59:01.825Z,27.4
2017-08-08T10:00:09.310Z,27.8
2017-08-08T10:01:16.801Z,28.3
2017-08-08T10:02:24.285Z,28.9
2017-08-08T10:03:31.119Z,29.4
2017-08-08T10:04:38.611Z,29.2
2017-08-08T10:05:46.126Z,28.9
2017-08-08T10:06:53.914Z,28.9
2017-08-08T10:08:01.405Z,28.9
2017-08-08T10:09:08.894Z,28.6
2017-08-08T10:10:16.390Z,28.2
2017-08-08T10:11:23.879Z,27.6
2017-08-08T10:12:31.678Z,27.3
2017-08-08T10:13:39.171Z,27
2017-08-08T10:14:46.003Z,26.9
2017-08-08T10:15:53.492Z,26.9
2017-08-08T10:17:01.010Z,27.1
2017-08-08T10:18:08.809Z,27.2
2017-08-08T10:19:16.044Z,27.3
2017-08-08T10:20:23.549Z,27.4
2017-08-08T10:21:30.951Z,27.2
2017-08-08T10:22:38.104Z,27.1
2017-08-08T10:23:45.598Z,27.2
2017-08-08T10:24:53.092Z,27.3
2017-08-08T10:26:00.586Z,27.7
2017-08-08T10:27:08.074Z,27.9
2017-08-08T10:28:15.491Z,28.2
2017-08-08T10:29:23.239Z,27.8
2017-08-08T10:30:30.401Z,27.7
2017-08-08T10:31:37.889Z,27.7
2017-08-08T10:32:45.532Z,27.9
2017-08-08T10:33:53.358Z,28.2
2017-08-08T10:35:00.855Z,28.4
2017-08-08T10:36:07.975Z,28
2017-08-08T10:37:15.466Z,28.2
2017-08-08T10:38:22.954Z,28.3
2017-08-08T10:39:30.748Z,28.2
2017-08-08T10:40:38.236Z,28.1
2017-08-08T10:41:45.876Z,28
2017-08-08T10:42:53.031Z,28.2
2017-08-08T10:44:00.517Z,28.2
2017-08-08T10:45:07.975Z,28.2
2017-08-08T10:46:15.469Z,28.3
2017-08-08T10:47:22.961Z,28.2
2017-08-08T10:48:29.795Z,28.2
2017-08-08T10:49:37.284Z,28.3
2017-08-08T10:50:44.771Z,28.1
2017-08-08T10:51:52.261Z,28.2
2017-08-08T10:52:59.757Z,28.5
2017-08-08T10:54:07.249Z,28.9
2017-08-08T10:55:14.414Z,29
2017-08-08T10:56:22.199Z,29
2017-08-08T10:57:29.691Z,29
2017-08-08T10:58:37.188Z,29.3
2017-08-08T10:59:44.680Z,29.8
2017-08-08T11:00:51.843Z,30.1
2017-08-08T11:01:59.636Z,29.7
2017-08-08T11:03:07.123Z,29.5
2017-08-08T11:04:14.617Z,29.3
2017-08-08T11:05:21.775Z,29.1
2017-08-08T11:06:29.666Z,29.3
2017-08-08T11:07:37.157Z,29.4
2017-08-08T11:08:44.646Z,29.6
2017-08-08T11:09:51.708Z,29.5
2017-08-08T11:10:59.197Z,29.2
2017-08-08T11:12:06.683Z,29.1
2017-08-08T11:13:14.144Z,29.3
2017-08-08T11:14:21.629Z,29
2017-08-08T11:15:28.790Z,28.4
2017-08-08T11:16:36.284Z,28.2
2017-08-08T11:17:43.775Z,28.2
2017-08-08T11:18:51.564Z,28
2017-08-08T11:19:59.068Z,27.7
2017-08-08T11:21:06.562Z,27.9
2017-08-08T11:22:14.054Z,28.1
2017-08-08T11:23:21.215Z,28.2
2017-08-08T11:24:29.004Z,28.2
2017-08-08T11:25:36.491Z,27.9
2017-08-08T11:26:43.975Z,27.8
2017-08-08T11:27:51.461Z,28
2017-08-08T11:28:58.951Z,28.3
2017-08-08T11:30:06.436Z,28.4
2017-08-08T11:31:13.930Z,28.6
2017-08-08T11:32:21.084Z,28.6
2017-08-08T11:33:28.581Z,28.7
2017-08-08T11:34:36.070Z,28.8
2017-08-08T11:35:43.527Z,28.7
2017-08-08T11:36:51.017Z,28.9
2017-08-08T11:37:58.503Z,28.8
2017-08-08T11:39:05.991Z,28.9
2017-08-08T11:40:12.826Z,29
2017-08-08T11:41:20.642Z,29.2
2017-08-08T11:42:27.810Z,29.6
2017-08-08T11:43:35.324Z,29.8
2017-08-08T11:44:42.820Z,30
2017-08-08T11:45:50.562Z,30
2017-08-08T11:46:58.061Z,29.7
2017-08-08T11:48:05.558Z,29.6
2017-08-08T11:49:12.725Z,29.3
2017-08-08T11:50:20.217Z,29.4
2017-08-08T11:51:27.703Z,29.2
2017-08-08T11:52:35.498Z,29.1
2017-08-08T11:53:43.003Z,29.1
2017-08-08T11:54:50.171Z,29.4
2017-08-08T11:55:57.660Z,29.7
2017-08-08T11:57:05.162Z,29.8
2017-08-08T11:58:12.960Z,29.6
2017-08-08T11:59:20.449Z,29.3
2017-08-08T12:00:28.229Z,28.9
2017-08-08T12:01:35.722Z,29
2017-08-08T12:02:43.212Z,29.1
2017-08-08T12:03:50.671Z,29.2
2017-08-08T12:04:58.178Z,29.4
2017-08-08T12:06:05.329Z,29
2017-08-08T12:07:12.507Z,29
2017-08-08T12:08:19.995Z,29.4
2017-08-08T12:09:27.495Z,29.7
2017-08-08T12:10:34.674Z,29.6
2017-08-08T12:11:42.165Z,29.1
2017-08-08T12:12:49.324Z,29.1
2017-08-08T12:13:56.820Z,29
2017-08-08T12:15:04.619Z,29.1
2017-08-08T12:16:12.109Z,29.2
2017-08-08T12:17:19.601Z,29.4
2017-08-08T12:18:27.095Z,29.2
2017-08-08T12:19:34.617Z,29.3
2017-08-08T12:20:42.454Z,29.2
2017-08-08T12:21:49.619Z,29.3
2017-08-08T12:22:57.142Z,29
2017-08-08T12:24:04.307Z,29
2017-08-08T12:25:11.798Z,28.9
2017-08-08T12:26:20.255Z,28.9
2017-08-08T12:27:27.748Z,29.2
2017-08-08T12:28:35.243Z,29.4
2017-08-08T12:29:42.351Z,29.6
2017-08-08T12:30:49.847Z,29.4
2017-08-08T12:31:57.337Z,29.4
2017-08-08T12:33:04.819Z,29.6
2017-08-08T12:34:12.313Z,30
2017-08-08T12:35:19.803Z,30.1
2017-08-08T12:36:27.295Z,30.2
2017-08-08T12:37:34.758Z,30.5
2017-08-08T12:38:42.249Z,30.7
2017-08-08T12:39:49.411Z,30.9
2017-08-08T12:40:56.897Z,31.2
2017-08-08T12:42:04.684Z,31.6
2017-08-08T12:43:12.179Z,31.5
2017-08-08T12:44:19.677Z,30.9
2017-08-08T12:45:27.162Z,30.5
2017-08-08T12:46:34.359Z,30.8
2017-08-08T12:47:42.156Z,30.7
2017-08-08T12:48:49.656Z,30.4
2017-08-08T12:49:56.820Z,30.4
2017-08-08T12:51:04.304Z,30.4
2017-08-08T12:52:11.804Z,30.3
2017-08-08T12:53:19.593Z,30.2
2017-08-08T12:54:26.743Z,30.1
2017-08-08T12:55:33.913Z,29.8
2017-08-08T12:56:41.405Z,29.8
2017-08-08T12:57:48.607Z,29.8
2017-08-08T12:58:56.098Z,29.7
2017-08-08T13:00:03.594Z,29.8
2017-08-08T13:01:11.071Z,30
2017-08-08T13:02:18.564Z,30.3
2017-08-08T13:03:26.051Z,30.3
2017-08-08T13:04:33.845Z,30.4
2017-08-08T13:05:41.333Z,29.9
2017-08-08T13:06:48.841Z,29.6
2017-08-08T13:07:56.333Z,29.5
2017-08-08T13:09:03.829Z,29.3
2017-08-08T13:10:11.624Z,29.5
2017-08-08T13:11:19.122Z,29.7
2017-08-08T13:12:26.609Z,29.9
2017-08-08T13:13:34.098Z,30
2017-08-08T13:14:41.620Z,29.9
2017-08-08T13:15:49.127Z,29.6
2017-08-08T13:16:56.611Z,29.5
2017-08-08T13:18:03.771Z,29.6
2017-08-08T13:19:10.938Z,29.6
2017-08-08T13:20:18.423Z,29.6
2017-08-08T13:21:25.893Z,29.7
2017-08-08T13:22:33.059Z,29.7
2017-08-08T13:23:40.589Z,29.4
2017-08-08T13:24:48.086Z,29.4
2017-08-08T13:25:55.577Z,29.5
2017-08-08T13:27:03.035Z,29.5
2017-08-08T13:28:10.196Z,29.6
2017-08-08T13:29:17.857Z,29.6
2017-08-08T13:30:25.356Z,29.7
2017-08-08T13:31:32.523Z,29.1
2017-08-08T13:32:40.321Z,28.7
2017-08-08T13:33:47.813Z,28.5
2017-08-08T13:34:55.322Z,28.7
2017-08-08T13:36:02.493Z,28.6
2017-08-08T13:37:09.984Z,28.4
2017-08-08T13:38:17.493Z,28.4
2017-08-08T13:39:24.985Z,28.5
2017-08-08T13:40:32.471Z,28.4
2017-08-08T13:41:39.961Z,28.4
2017-08-08T13:42:48.087Z,28
2017-08-08T13:43:55.223Z,27.9
2017-08-08T13:45:02.712Z,27.9
2017-08-08T13:46:10.209Z,27.9
2017-08-08T13:47:17.701Z,28.1
2017-08-08T13:48:25.193Z,28.1
2017-08-08T13:49:32.988Z,28.1
2017-08-08T13:50:40.476Z,28.2
2017-08-08T13:51:47.969Z,28
2017-08-08T13:52:55.453Z,28
2017-08-08T13:54:02.946Z,27.9
2017-08-08T13:55:25.019Z,27.7
2017-08-08T13:56:32.513Z,27.9
2017-08-08T13:57:40.010Z,27.7
2017-08-08T13:58:47.501Z,27.8
2017-08-08T13:59:54.657Z,27.9
2017-08-08T14:01:02.452Z,28
2017-08-08T14:02:09.940Z,28.2
2017-08-08T14:03:17.434Z,28.2
2017-08-08T14:04:25.522Z,27.9
2017-08-08T14:05:33.007Z,27.8
2017-08-08T14:06:40.807Z,27.8
2017-08-08T14:07:48.295Z,27.9
2017-08-08T14:08:55.781Z,27.9
2017-08-08T14:10:03.272Z,27.8
2017-08-08T14:11:10.437Z,27.7
2017-08-08T14:12:18.225Z,27.7
2017-08-08T14:13:25.733Z,27.8
2017-08-08T14:14:32.898Z,27.9
2017-08-08T14:15:40.395Z,28
2017-08-08T14:16:47.892Z,28
2017-08-08T14:17:56.939Z,28.1
2017-08-08T14:19:04.427Z,28
2017-08-08T14:20:11.919Z,28
2017-08-08T14:21:19.410Z,28
2017-08-08T14:22:26.909Z,28.1
2017-08-08T14:23:34.695Z,28.1
2017-08-08T14:24:42.188Z,28
2017-08-08T14:25:49.678Z,28
2017-08-08T14:26:57.171Z,28
2017-08-08T14:28:04.660Z,28
2017-08-08T14:29:12.147Z,28
2017-08-08T14:30:20.474Z,28
2017-08-08T14:31:27.981Z,28
2017-08-08T14:32:35.822Z,27.8
2017-08-08T14:33:43.318Z,27.7
2017-08-08T14:34:50.482Z,27.7
2017-08-08T14:35:57.645Z,27.8
2017-08-08T14:37:05.140Z,27.8
2017-08-08T14:38:12.607Z,27.8
2017-08-08T14:39:20.102Z,27.9
2017-08-08T14:40:27.591Z,27.9
2017-08-08T14:41:35.080Z,27.8
2017-08-08T14:42:42.579Z,27.6
2017-08-08T14:43:50.363Z,27.6
2017-08-08T14:44:57.849Z,27.5
2017-08-08T14:46:05.330Z,27.3
2017-08-08T14:47:12.830Z,27.3
2017-08-08T14:48:20.317Z,27.4
2017-08-08T14:49:27.802Z,27.6
2017-08-08T14:50:35.302Z,27.7
2017-08-08T14:51:42.792Z,27.6
2017-08-08T14:52:50.302Z,27.5
2017-08-08T14:53:57.798Z,27.2
2017-08-08T14:55:07.092Z,27.1
2017-08-08T14:56:14.583Z,27.2
2017-08-08T14:57:21.741Z,27.2
2017-08-08T14:58:28.574Z,27.1
2017-08-08T14:59:36.064Z,27.1
2017-08-08T15:00:43.577Z,26.8
2017-08-08T15:01:51.063Z,26.8
2017-08-08T15:02:59.362Z,26.9
2017-08-08T15:04:06.855Z,27.2
2017-08-08T15:05:13.923Z,27.2
2017-08-08T15:06:21.761Z,27.4
2017-08-08T15:07:29.479Z,27.2